sensor_id;sensor_type;location;lat;lon;timestamp;P1;durP1;ratioP1;P2;durP2;ratioP2
52102;SDS011;38101;53.126;6.878;2023-04-03T00:02:10;2.55;;;1.20;;
52102;SDS011;38101;53.126;6.878;2023-04-03T00:04:35;2.78;;;1.52;;
52102;SDS011;38101;53.126;6.878;2023-04-03T00:07:01;2.67;;;1.40;;
52102;SDS011;38101;53.126;6.878;2023-04-03T00:09:27;3.80;;;1.10;;
52102;SDS011;38101;53.126;6.878;2023-04-03T00:11:52;2.38;;;1.33;;
52102;SDS011;38101;53.126;6.878;2023-04-03T00:14:18;2.95;;;1.40;;
52102;SDS011;38101;53.126;6.878;2023-04-03T00:16:44;1.90;;;1.30;;
52102;SDS011;38101;53.126;6.878;2023-04-03T00:19:10;3.53;;;1.83;;
52102;SDS011;38101;53.126;6.878;2023-04-03T00:21:37;2.95;;;1.35;;
52102;SDS011;38101;53.126;6.878;2023-04-03T00:24:03;2.58;;;1.45;;
52102;SDS011;38101;53.126;6.878;2023-04-03T00:26:29;1.90;;;1.23;;
52102;SDS011;38101;53.126;6.878;2023-04-03T00:28:54;2.08;;;1.30;;
52102;SDS011;38101;53.126;6.878;2023-04-03T00:31:21;3.58;;;1.30;;
52102;SDS011;38101;53.126;6.878;2023-04-03T00:33:47;2.90;;;1.48;;
52102;SDS011;38101;53.126;6.878;2023-04-03T00:36:12;2.13;;;1.30;;
52102;SDS011;38101;53.126;6.878;2023-04-03T00:38:38;3.13;;;1.70;;
52102;SDS011;38101;53.126;6.878;2023-04-03T00:41:04;2.42;;;1.40;;
52102;SDS011;38101;53.126;6.878;2023-04-03T00:43:30;3.83;;;1.52;;
52102;SDS011;38101;53.126;6.878;2023-04-03T00:45:57;5.03;;;1.80;;
52102;SDS011;38101;53.126;6.878;2023-04-03T00:48:37;3.20;;;1.63;;
52102;SDS011;38101;53.126;6.878;2023-04-03T00:51:10;4.32;;;1.67;;
52102;SDS011;38101;53.126;6.878;2023-04-03T00:53:46;5.53;;;1.85;;
52102;SDS011;38101;53.126;6.878;2023-04-03T00:56:16;3.97;;;2.03;;
52102;SDS011;38101;53.126;6.878;2023-04-03T00:58:49;4.93;;;1.85;;
52102;SDS011;38101;53.126;6.878;2023-04-03T01:01:24;2.53;;;1.35;;
52102;SDS011;38101;53.126;6.878;2023-04-03T01:03:51;3.63;;;1.90;;
52102;SDS011;38101;53.126;6.878;2023-04-03T01:06:17;3.10;;;1.45;;
52102;SDS011;38101;53.126;6.878;2023-04-03T01:08:48;2.90;;;1.67;;
52102;SDS011;38101;53.126;6.878;2023-04-03T01:11:15;6.28;;;1.73;;
52102;SDS011;38101;53.126;6.878;2023-04-03T01:13:41;4.03;;;1.92;;
52102;SDS011;38101;53.126;6.878;2023-04-03T01:16:07;3.67;;;1.77;;
52102;SDS011;38101;53.126;6.878;2023-04-03T01:18:33;6.10;;;2.33;;
52102;SDS011;38101;53.126;6.878;2023-04-03T01:21:09;5.43;;;1.70;;
52102;SDS011;38101;53.126;6.878;2023-04-03T01:26:02;3.08;;;1.40;;
52102;SDS011;38101;53.126;6.878;2023-04-03T01:28:29;3.95;;;1.60;;
52102;SDS011;38101;53.126;6.878;2023-04-03T01:31:12;4.53;;;2.03;;
52102;SDS011;38101;53.126;6.878;2023-04-03T01:33:38;3.55;;;1.80;;
52102;SDS011;38101;53.126;6.878;2023-04-03T01:36:04;3.42;;;1.63;;
52102;SDS011;38101;53.126;6.878;2023-04-03T01:38:31;7.18;;;2.10;;
52102;SDS011;38101;53.126;6.878;2023-04-03T01:40:57;6.60;;;2.08;;
52102;SDS011;38101;53.126;6.878;2023-04-03T01:43:22;3.13;;;1.77;;
52102;SDS011;38101;53.126;6.878;2023-04-03T01:45:48;4.55;;;1.88;;
52102;SDS011;38101;53.126;6.878;2023-04-03T01:48:15;4.60;;;1.75;;
52102;SDS011;38101;53.126;6.878;2023-04-03T01:50:41;4.18;;;1.65;;
52102;SDS011;38101;53.126;6.878;2023-04-03T01:53:07;3.95;;;1.70;;
52102;SDS011;38101;53.126;6.878;2023-04-03T01:55:33;4.20;;;1.80;;
52102;SDS011;38101;53.126;6.878;2023-04-03T01:57:58;5.25;;;1.95;;
52102;SDS011;38101;53.126;6.878;2023-04-03T02:00:24;2.53;;;1.40;;
52102;SDS011;38101;53.126;6.878;2023-04-03T02:02:51;5.10;;;2.20;;
52102;SDS011;38101;53.126;6.878;2023-04-03T02:05:17;3.55;;;1.85;;
52102;SDS011;38101;53.126;6.878;2023-04-03T02:07:43;5.97;;;2.38;;
52102;SDS011;38101;53.126;6.878;2023-04-03T02:10:09;4.57;;;2.10;;
52102;SDS011;38101;53.126;6.878;2023-04-03T02:12:35;3.85;;;2.00;;
52102;SDS011;38101;53.126;6.878;2023-04-03T02:15:00;4.20;;;1.80;;
52102;SDS011;38101;53.126;6.878;2023-04-03T02:17:26;4.60;;;2.00;;
52102;SDS011;38101;53.126;6.878;2023-04-03T02:19:52;5.60;;;1.95;;
52102;SDS011;38101;53.126;6.878;2023-04-03T02:22:17;4.55;;;2.00;;
52102;SDS011;38101;53.126;6.878;2023-04-03T02:24:44;3.55;;;2.25;;
52102;SDS011;38101;53.126;6.878;2023-04-03T02:27:09;3.90;;;1.80;;
52102;SDS011;38101;53.126;6.878;2023-04-03T02:29:35;5.03;;;1.80;;
52102;SDS011;38101;53.126;6.878;2023-04-03T02:32:01;5.45;;;2.10;;
52102;SDS011;38101;53.126;6.878;2023-04-03T02:34:26;5.32;;;2.30;;
52102;SDS011;38101;53.126;6.878;2023-04-03T02:36:52;6.65;;;2.20;;
52102;SDS011;38101;53.126;6.878;2023-04-03T02:39:18;5.63;;;2.22;;
52102;SDS011;38101;53.126;6.878;2023-04-03T02:41:43;3.60;;;1.85;;
52102;SDS011;38101;53.126;6.878;2023-04-03T02:44:09;6.35;;;2.10;;
52102;SDS011;38101;53.126;6.878;2023-04-03T02:46:35;5.57;;;2.20;;
52102;SDS011;38101;53.126;6.878;2023-04-03T02:49:01;3.63;;;2.00;;
52102;SDS011;38101;53.126;6.878;2023-04-03T02:51:28;4.88;;;2.15;;
52102;SDS011;38101;53.126;6.878;2023-04-03T02:53:54;4.38;;;1.90;;
52102;SDS011;38101;53.126;6.878;2023-04-03T02:56:20;3.65;;;1.80;;
52102;SDS011;38101;53.126;6.878;2023-04-03T02:58:46;3.05;;;1.83;;
52102;SDS011;38101;53.126;6.878;2023-04-03T03:01:12;3.83;;;1.80;;
52102;SDS011;38101;53.126;6.878;2023-04-03T03:03:38;7.05;;;2.35;;
52102;SDS011;38101;53.126;6.878;2023-04-03T03:06:04;3.42;;;2.33;;
52102;SDS011;38101;53.126;6.878;2023-04-03T03:08:31;5.80;;;2.20;;
52102;SDS011;38101;53.126;6.878;2023-04-03T03:10:57;3.83;;;2.00;;
52102;SDS011;38101;53.126;6.878;2023-04-03T03:13:23;4.10;;;1.77;;
52102;SDS011;38101;53.126;6.878;2023-04-03T03:15:49;4.53;;;1.90;;
52102;SDS011;38101;53.126;6.878;2023-04-03T03:18:15;4.65;;;2.00;;
52102;SDS011;38101;53.126;6.878;2023-04-03T03:20:40;3.50;;;1.80;;
52102;SDS011;38101;53.126;6.878;2023-04-03T03:23:06;4.97;;;1.90;;
52102;SDS011;38101;53.126;6.878;2023-04-03T03:25:32;4.43;;;2.10;;
52102;SDS011;38101;53.126;6.878;2023-04-03T03:27:57;5.72;;;2.08;;
52102;SDS011;38101;53.126;6.878;2023-04-03T03:30:23;4.13;;;2.17;;
52102;SDS011;38101;53.126;6.878;2023-04-03T03:32:49;5.35;;;2.53;;
52102;SDS011;38101;53.126;6.878;2023-04-03T03:35:15;7.70;;;2.35;;
52102;SDS011;38101;53.126;6.878;2023-04-03T03:37:40;5.93;;;2.25;;
52102;SDS011;38101;53.126;6.878;2023-04-03T03:40:06;5.70;;;2.60;;
52102;SDS011;38101;53.126;6.878;2023-04-03T03:42:32;7.55;;;2.42;;
52102;SDS011;38101;53.126;6.878;2023-04-03T03:44:58;6.40;;;2.40;;
52102;SDS011;38101;53.126;6.878;2023-04-03T03:47:24;7.28;;;2.60;;
52102;SDS011;38101;53.126;6.878;2023-04-03T03:49:50;4.03;;;2.33;;
52102;SDS011;38101;53.126;6.878;2023-04-03T03:52:16;3.95;;;2.33;;
52102;SDS011;38101;53.126;6.878;2023-04-03T03:54:41;5.93;;;2.55;;
52102;SDS011;38101;53.126;6.878;2023-04-03T03:57:07;6.45;;;2.80;;
52102;SDS011;38101;53.126;6.878;2023-04-03T03:59:33;6.32;;;2.65;;
52102;SDS011;38101;53.126;6.878;2023-04-03T04:01:58;5.00;;;2.40;;
52102;SDS011;38101;53.126;6.878;2023-04-03T04:04:24;4.72;;;2.50;;
52102;SDS011;38101;53.126;6.878;2023-04-03T04:06:50;5.63;;;2.42;;
52102;SDS011;38101;53.126;6.878;2023-04-03T04:09:16;4.57;;;2.40;;
52102;SDS011;38101;53.126;6.878;2023-04-03T04:11:42;6.45;;;2.80;;
52102;SDS011;38101;53.126;6.878;2023-04-03T04:14:08;8.68;;;2.30;;
52102;SDS011;38101;53.126;6.878;2023-04-03T04:16:35;5.47;;;2.45;;
52102;SDS011;38101;53.126;6.878;2023-04-03T04:19:01;5.13;;;2.58;;
52102;SDS011;38101;53.126;6.878;2023-04-03T04:21:26;4.47;;;2.35;;
52102;SDS011;38101;53.126;6.878;2023-04-03T04:23:52;5.80;;;3.05;;
52102;SDS011;38101;53.126;6.878;2023-04-03T04:26:18;5.07;;;2.60;;
52102;SDS011;38101;53.126;6.878;2023-04-03T04:28:43;6.25;;;2.63;;
52102;SDS011;38101;53.126;6.878;2023-04-03T04:31:09;5.00;;;2.50;;
52102;SDS011;38101;53.126;6.878;2023-04-03T04:33:35;6.53;;;2.50;;
52102;SDS011;38101;53.126;6.878;2023-04-03T04:36:00;4.78;;;2.60;;
52102;SDS011;38101;53.126;6.878;2023-04-03T04:38:26;6.45;;;2.78;;
52102;SDS011;38101;53.126;6.878;2023-04-03T04:40:52;6.65;;;2.72;;
52102;SDS011;38101;53.126;6.878;2023-04-03T04:43:17;4.97;;;2.70;;
52102;SDS011;38101;53.126;6.878;2023-04-03T04:45:43;7.50;;;3.15;;
52102;SDS011;38101;53.126;6.878;2023-04-03T04:48:09;6.18;;;2.75;;
52102;SDS011;38101;53.126;6.878;2023-04-03T04:50:34;5.15;;;2.65;;
52102;SDS011;38101;53.126;6.878;2023-04-03T04:53:00;9.95;;;3.00;;
52102;SDS011;38101;53.126;6.878;2023-04-03T04:55:26;6.88;;;3.03;;
52102;SDS011;38101;53.126;6.878;2023-04-03T04:57:51;6.20;;;3.15;;
52102;SDS011;38101;53.126;6.878;2023-04-03T05:00:17;6.85;;;3.00;;
52102;SDS011;38101;53.126;6.878;2023-04-03T05:02:43;6.65;;;2.72;;
52102;SDS011;38101;53.126;6.878;2023-04-03T05:05:09;7.95;;;3.28;;
52102;SDS011;38101;53.126;6.878;2023-04-03T05:07:35;6.00;;;2.95;;
52102;SDS011;38101;53.126;6.878;2023-04-03T05:10:00;6.50;;;3.10;;
52102;SDS011;38101;53.126;6.878;2023-04-03T05:12:27;6.03;;;3.00;;
52102;SDS011;38101;53.126;6.878;2023-04-03T05:14:53;5.85;;;3.10;;
52102;SDS011;38101;53.126;6.878;2023-04-03T05:17:19;7.95;;;3.15;;
52102;SDS011;38101;53.126;6.878;2023-04-03T05:19:45;6.75;;;2.80;;
52102;SDS011;38101;53.126;6.878;2023-04-03T05:22:10;6.78;;;3.10;;
52102;SDS011;38101;53.126;6.878;2023-04-03T05:24:36;6.80;;;2.97;;
52102;SDS011;38101;53.126;6.878;2023-04-03T05:27:02;9.07;;;3.47;;
52102;SDS011;38101;53.126;6.878;2023-04-03T05:29:28;7.45;;;2.85;;
52102;SDS011;38101;53.126;6.878;2023-04-03T05:31:54;7.20;;;2.78;;
52102;SDS011;38101;53.126;6.878;2023-04-03T05:34:20;5.38;;;3.20;;
52102;SDS011;38101;53.126;6.878;2023-04-03T05:36:46;7.82;;;2.60;;
52102;SDS011;38101;53.126;6.878;2023-04-03T05:39:12;8.00;;;3.15;;
52102;SDS011;38101;53.126;6.878;2023-04-03T05:41:37;5.80;;;3.17;;
52102;SDS011;38101;53.126;6.878;2023-04-03T05:44:03;5.63;;;2.70;;
52102;SDS011;38101;53.126;6.878;2023-04-03T05:46:29;6.57;;;2.53;;
52102;SDS011;38101;53.126;6.878;2023-04-03T05:48:55;5.43;;;2.60;;
52102;SDS011;38101;53.126;6.878;2023-04-03T05:51:24;7.63;;;3.00;;
52102;SDS011;38101;53.126;6.878;2023-04-03T05:53:56;5.68;;;2.80;;
52102;SDS011;38101;53.126;6.878;2023-04-03T05:56:32;5.68;;;2.90;;
52102;SDS011;38101;53.126;6.878;2023-04-03T05:58:58;4.95;;;2.90;;
52102;SDS011;38101;53.126;6.878;2023-04-03T06:01:23;5.30;;;3.25;;
52102;SDS011;38101;53.126;6.878;2023-04-03T06:03:49;4.70;;;2.95;;
52102;SDS011;38101;53.126;6.878;2023-04-03T06:06:15;6.38;;;2.75;;
52102;SDS011;38101;53.126;6.878;2023-04-03T06:08:41;6.43;;;3.33;;
52102;SDS011;38101;53.126;6.878;2023-04-03T06:11:06;6.40;;;3.08;;
52102;SDS011;38101;53.126;6.878;2023-04-03T06:13:33;5.70;;;3.17;;
52102;SDS011;38101;53.126;6.878;2023-04-03T06:16:00;4.70;;;2.80;;
52102;SDS011;38101;53.126;6.878;2023-04-03T06:18:26;6.45;;;2.83;;
52102;SDS011;38101;53.126;6.878;2023-04-03T06:20:51;9.52;;;3.20;;
52102;SDS011;38101;53.126;6.878;2023-04-03T06:23:17;6.47;;;3.55;;
52102;SDS011;38101;53.126;6.878;2023-04-03T06:25:43;5.32;;;3.03;;
52102;SDS011;38101;53.126;6.878;2023-04-03T06:28:09;8.20;;;3.40;;
52102;SDS011;38101;53.126;6.878;2023-04-03T06:30:35;7.55;;;3.30;;
52102;SDS011;38101;53.126;6.878;2023-04-03T06:33:01;7.25;;;3.03;;
52102;SDS011;38101;53.126;6.878;2023-04-03T06:35:28;9.18;;;3.30;;
52102;SDS011;38101;53.126;6.878;2023-04-03T06:37:55;9.07;;;3.90;;
52102;SDS011;38101;53.126;6.878;2023-04-03T06:40:22;7.68;;;4.45;;
52102;SDS011;38101;53.126;6.878;2023-04-03T06:42:50;6.22;;;3.63;;
52102;SDS011;38101;53.126;6.878;2023-04-03T06:45:16;6.78;;;3.20;;
52102;SDS011;38101;53.126;6.878;2023-04-03T06:47:42;8.02;;;3.17;;
52102;SDS011;38101;53.126;6.878;2023-04-03T06:50:09;5.57;;;2.90;;
52102;SDS011;38101;53.126;6.878;2023-04-03T06:52:36;6.43;;;3.00;;
52102;SDS011;38101;53.126;6.878;2023-04-03T06:55:02;5.40;;;3.05;;
52102;SDS011;38101;53.126;6.878;2023-04-03T06:57:29;8.52;;;3.05;;
52102;SDS011;38101;53.126;6.878;2023-04-03T06:59:55;6.43;;;3.05;;
52102;SDS011;38101;53.126;6.878;2023-04-03T07:02:21;8.27;;;3.40;;
52102;SDS011;38101;53.126;6.878;2023-04-03T07:04:46;6.32;;;2.83;;
52102;SDS011;38101;53.126;6.878;2023-04-03T07:07:12;7.78;;;3.05;;
52102;SDS011;38101;53.126;6.878;2023-04-03T07:09:38;6.28;;;2.85;;
52102;SDS011;38101;53.126;6.878;2023-04-03T07:12:04;4.95;;;3.00;;
52102;SDS011;38101;53.126;6.878;2023-04-03T07:14:30;7.85;;;3.10;;
52102;SDS011;38101;53.126;6.878;2023-04-03T07:16:56;6.78;;;2.83;;
52102;SDS011;38101;53.126;6.878;2023-04-03T07:19:21;7.07;;;3.40;;
52102;SDS011;38101;53.126;6.878;2023-04-03T07:21:49;5.85;;;2.97;;
52102;SDS011;38101;53.126;6.878;2023-04-03T07:24:15;7.97;;;2.85;;
52102;SDS011;38101;53.126;6.878;2023-04-03T07:26:41;6.05;;;3.00;;
52102;SDS011;38101;53.126;6.878;2023-04-03T07:29:06;8.25;;;3.00;;
52102;SDS011;38101;53.126;6.878;2023-04-03T07:31:32;5.25;;;3.00;;
52102;SDS011;38101;53.126;6.878;2023-04-03T07:33:58;7.28;;;3.08;;
52102;SDS011;38101;53.126;6.878;2023-04-03T07:36:24;5.00;;;2.70;;
52102;SDS011;38101;53.126;6.878;2023-04-03T07:38:50;5.22;;;2.70;;
52102;SDS011;38101;53.126;6.878;2023-04-03T07:41:17;6.97;;;3.20;;
52102;SDS011;38101;53.126;6.878;2023-04-03T07:43:45;7.10;;;3.35;;
52102;SDS011;38101;53.126;6.878;2023-04-03T07:46:12;5.20;;;3.08;;
52102;SDS011;38101;53.126;6.878;2023-04-03T07:48:37;10.13;;;3.35;;
52102;SDS011;38101;53.126;6.878;2023-04-03T07:51:04;7.78;;;3.10;;
52102;SDS011;38101;53.126;6.878;2023-04-03T07:53:30;7.82;;;3.28;;
52102;SDS011;38101;53.126;6.878;2023-04-03T07:55:57;8.75;;;2.83;;
52102;SDS011;38101;53.126;6.878;2023-04-03T07:58:23;6.05;;;2.90;;
52102;SDS011;38101;53.126;6.878;2023-04-03T08:00:50;8.23;;;3.03;;
52102;SDS011;38101;53.126;6.878;2023-04-03T08:03:17;6.28;;;2.70;;
52102;SDS011;38101;53.126;6.878;2023-04-03T08:05:44;6.22;;;3.10;;
52102;SDS011;38101;53.126;6.878;2023-04-03T08:08:13;5.70;;;2.90;;
52102;SDS011;38101;53.126;6.878;2023-04-03T08:10:41;6.55;;;2.85;;
52102;SDS011;38101;53.126;6.878;2023-04-03T08:13:08;6.72;;;2.60;;
52102;SDS011;38101;53.126;6.878;2023-04-03T08:15:35;8.25;;;2.70;;
52102;SDS011;38101;53.126;6.878;2023-04-03T08:18:01;4.57;;;2.60;;
52102;SDS011;38101;53.126;6.878;2023-04-03T08:20:27;6.88;;;2.83;;
52102;SDS011;38101;53.126;6.878;2023-04-03T08:22:53;4.43;;;2.75;;
52102;SDS011;38101;53.126;6.878;2023-04-03T08:25:20;7.40;;;2.70;;
52102;SDS011;38101;53.126;6.878;2023-04-03T08:27:46;4.60;;;2.67;;
52102;SDS011;38101;53.126;6.878;2023-04-03T08:30:12;5.70;;;2.83;;
52102;SDS011;38101;53.126;6.878;2023-04-03T08:32:38;7.20;;;2.58;;
52102;SDS011;38101;53.126;6.878;2023-04-03T08:35:06;7.88;;;2.88;;
52102;SDS011;38101;53.126;6.878;2023-04-03T08:37:34;3.80;;;2.10;;
52102;SDS011;38101;53.126;6.878;2023-04-03T08:40:02;6.13;;;2.25;;
52102;SDS011;38101;53.126;6.878;2023-04-03T08:45:06;4.45;;;2.60;;
52102;SDS011;38101;53.126;6.878;2023-04-03T08:47:45;5.10;;;2.30;;
52102;SDS011;38101;53.126;6.878;2023-04-03T08:50:17;4.50;;;2.20;;
52102;SDS011;38101;53.126;6.878;2023-04-03T08:52:52;6.45;;;2.33;;
52102;SDS011;38101;53.126;6.878;2023-04-03T09:00:29;6.90;;;2.55;;
52102;SDS011;38101;53.126;6.878;2023-04-03T09:03:36;5.82;;;2.30;;
52102;SDS011;38101;53.126;6.878;2023-04-03T09:06:05;5.28;;;2.28;;
52102;SDS011;38101;53.126;6.878;2023-04-03T09:11:21;5.22;;;1.95;;
52102;SDS011;38101;53.126;6.878;2023-04-03T09:16:30;5.30;;;2.28;;
52102;SDS011;38101;53.126;6.878;2023-04-03T09:21:45;3.60;;;1.80;;
52102;SDS011;38101;53.126;6.878;2023-04-03T09:24:13;6.13;;;1.83;;
52102;SDS011;38101;53.126;6.878;2023-04-03T09:26:42;4.20;;;1.92;;
52102;SDS011;38101;53.126;6.878;2023-04-03T09:29:10;5.93;;;1.92;;
52102;SDS011;38101;53.126;6.878;2023-04-03T09:31:43;4.13;;;1.85;;
52102;SDS011;38101;53.126;6.878;2023-04-03T09:34:21;3.90;;;1.60;;
52102;SDS011;38101;53.126;6.878;2023-04-03T09:36:52;4.05;;;1.95;;
52102;SDS011;38101;53.126;6.878;2023-04-03T09:39:24;4.95;;;1.80;;
52102;SDS011;38101;53.126;6.878;2023-04-03T09:44:23;3.95;;;1.90;;
52102;SDS011;38101;53.126;6.878;2023-04-03T09:46:55;4.95;;;1.90;;
52102;SDS011;38101;53.126;6.878;2023-04-03T09:49:20;2.92;;;1.70;;
52102;SDS011;38101;53.126;6.878;2023-04-03T09:51:46;3.22;;;1.65;;
52102;SDS011;38101;53.126;6.878;2023-04-03T09:56:55;3.35;;;1.58;;
52102;SDS011;38101;53.126;6.878;2023-04-03T09:59:27;4.75;;;1.98;;
52102;SDS011;38101;53.126;6.878;2023-04-03T10:02:04;3.80;;;1.73;;
52102;SDS011;38101;53.126;6.878;2023-04-03T10:04:45;3.60;;;1.60;;
52102;SDS011;38101;53.126;6.878;2023-04-03T10:07:28;3.80;;;1.40;;
52102;SDS011;38101;53.126;6.878;2023-04-03T10:10:26;3.50;;;1.88;;
52102;SDS011;38101;53.126;6.878;2023-04-03T10:13:12;4.50;;;1.88;;
52102;SDS011;38101;53.126;6.878;2023-04-03T10:15:46;3.78;;;1.77;;
52102;SDS011;38101;53.126;6.878;2023-04-03T10:18:44;3.90;;;1.80;;
52102;SDS011;38101;53.126;6.878;2023-04-03T10:21:45;3.65;;;1.50;;
52102;SDS011;38101;53.126;6.878;2023-04-03T10:29:35;5.18;;;1.48;;
52102;SDS011;38101;53.126;6.878;2023-04-03T10:34:42;6.15;;;1.90;;
52102;SDS011;38101;53.126;6.878;2023-04-03T10:40:21;3.35;;;1.42;;
52102;SDS011;38101;53.126;6.878;2023-04-03T10:45:31;3.70;;;1.52;;
52102;SDS011;38101;53.126;6.878;2023-04-03T10:56:41;2.03;;;1.30;;
52102;SDS011;38101;53.126;6.878;2023-04-03T10:59:27;3.53;;;1.27;;
52102;SDS011;38101;53.126;6.878;2023-04-03T11:02:04;2.63;;;1.30;;
52102;SDS011;38101;53.126;6.878;2023-04-03T11:05:14;2.42;;;1.23;;
52102;SDS011;38101;53.126;6.878;2023-04-03T11:07:48;2.78;;;1.33;;
52102;SDS011;38101;53.126;6.878;2023-04-03T11:12:56;2.45;;;1.13;;
52102;SDS011;38101;53.126;6.878;2023-04-03T11:15:27;2.05;;;1.30;;
52102;SDS011;38101;53.126;6.878;2023-04-03T11:17:59;3.75;;;1.17;;
52102;SDS011;38101;53.126;6.878;2023-04-03T11:20:31;2.85;;;1.48;;
52102;SDS011;38101;53.126;6.878;2023-04-03T11:25:40;3.30;;;1.60;;
52102;SDS011;38101;53.126;6.878;2023-04-03T11:28:16;5.38;;;1.80;;
52102;SDS011;38101;53.126;6.878;2023-04-03T11:36:01;2.97;;;1.48;;
52102;SDS011;38101;53.126;6.878;2023-04-03T11:38:38;4.28;;;1.52;;
52102;SDS011;38101;53.126;6.878;2023-04-03T11:41:09;2.78;;;1.40;;
52102;SDS011;38101;53.126;6.878;2023-04-03T11:43:40;2.40;;;1.50;;
52102;SDS011;38101;53.126;6.878;2023-04-03T11:46:08;3.70;;;1.60;;
52102;SDS011;38101;53.126;6.878;2023-04-03T11:51:37;4.75;;;1.85;;
52102;SDS011;38101;53.126;6.878;2023-04-03T11:53:54;2.58;;;1.50;;
52102;SDS011;38101;53.126;6.878;2023-04-03T12:04:11;3.22;;;1.88;;
52102;SDS011;38101;53.126;6.878;2023-04-03T12:07:11;3.53;;;1.60;;
52102;SDS011;38101;53.126;6.878;2023-04-03T12:15:24;4.32;;;1.77;;
52102;SDS011;38101;53.126;6.878;2023-04-03T12:21:13;3.22;;;1.67;;
52102;SDS011;38101;53.126;6.878;2023-04-03T12:24:04;2.83;;;1.60;;
52102;SDS011;38101;53.126;6.878;2023-04-03T12:37:43;2.30;;;1.42;;
52102;SDS011;38101;53.126;6.878;2023-04-03T12:48:26;3.25;;;1.58;;
52102;SDS011;38101;53.126;6.878;2023-04-03T12:50:53;3.10;;;1.80;;
52102;SDS011;38101;53.126;6.878;2023-04-03T12:53:21;2.20;;;1.27;;
52102;SDS011;38101;53.126;6.878;2023-04-03T12:55:59;3.78;;;1.70;;
52102;SDS011;38101;53.126;6.878;2023-04-03T12:58:44;3.85;;;1.70;;
52102;SDS011;38101;53.126;6.878;2023-04-03T13:01:11;2.80;;;1.60;;
52102;SDS011;38101;53.126;6.878;2023-04-03T13:03:40;2.88;;;1.50;;
52102;SDS011;38101;53.126;6.878;2023-04-03T13:06:23;2.50;;;1.40;;
52102;SDS011;38101;53.126;6.878;2023-04-03T13:08:54;2.63;;;1.48;;
52102;SDS011;38101;53.126;6.878;2023-04-03T13:11:25;3.33;;;1.60;;
52102;SDS011;38101;53.126;6.878;2023-04-03T13:14:02;4.85;;;1.73;;
52102;SDS011;38101;53.126;6.878;2023-04-03T13:16:32;4.10;;;1.75;;
52102;SDS011;38101;53.126;6.878;2023-04-03T13:18:58;4.13;;;1.40;;
52102;SDS011;38101;53.126;6.878;2023-04-03T13:21:25;3.22;;;1.35;;
52102;SDS011;38101;53.126;6.878;2023-04-03T13:23:59;3.53;;;1.80;;
52102;SDS011;38101;53.126;6.878;2023-04-03T13:26:31;3.50;;;1.63;;
52102;SDS011;38101;53.126;6.878;2023-04-03T13:29:40;2.40;;;1.50;;
52102;SDS011;38101;53.126;6.878;2023-04-03T13:31:57;4.18;;;1.70;;
52102;SDS011;38101;53.126;6.878;2023-04-03T13:34:26;1.75;;;1.40;;
52102;SDS011;38101;53.126;6.878;2023-04-03T13:36:55;3.17;;;1.58;;
52102;SDS011;38101;53.126;6.878;2023-04-03T13:39:25;2.13;;;1.58;;
52102;SDS011;38101;53.126;6.878;2023-04-03T13:41:52;3.72;;;1.63;;
52102;SDS011;38101;53.126;6.878;2023-04-03T13:51:59;3.80;;;1.38;;
52102;SDS011;38101;53.126;6.878;2023-04-03T13:54:31;5.35;;;1.70;;
52102;SDS011;38101;53.126;6.878;2023-04-03T13:57:00;5.57;;;1.75;;
52102;SDS011;38101;53.126;6.878;2023-04-03T13:59:28;2.55;;;1.58;;
52102;SDS011;38101;53.126;6.878;2023-04-03T14:04:32;6.13;;;2.22;;
52102;SDS011;38101;53.126;6.878;2023-04-03T14:09:49;2.40;;;1.40;;
52102;SDS011;38101;53.126;6.878;2023-04-03T14:12:31;2.42;;;1.25;;
52102;SDS011;38101;53.126;6.878;2023-04-03T14:15:01;3.33;;;1.42;;
52102;SDS011;38101;53.126;6.878;2023-04-03T14:17:37;2.35;;;1.40;;
52102;SDS011;38101;53.126;6.878;2023-04-03T14:20:03;2.42;;;1.50;;
52102;SDS011;38101;53.126;6.878;2023-04-03T14:22:30;3.20;;;1.48;;
52102;SDS011;38101;53.126;6.878;2023-04-03T14:24:57;2.67;;;1.38;;
52102;SDS011;38101;53.126;6.878;2023-04-03T14:27:25;3.45;;;1.40;;
52102;SDS011;38101;53.126;6.878;2023-04-03T14:30:06;3.63;;;1.55;;
52102;SDS011;38101;53.126;6.878;2023-04-03T14:32:34;1.17;;;1.08;;
52102;SDS011;38101;53.126;6.878;2023-04-03T14:35:00;2.35;;;1.25;;
52102;SDS011;38101;53.126;6.878;2023-04-03T14:37:27;3.97;;;1.33;;
52102;SDS011;38101;53.126;6.878;2023-04-03T14:39:55;1.85;;;1.20;;
52102;SDS011;38101;53.126;6.878;2023-04-03T14:42:24;2.33;;;1.20;;
52102;SDS011;38101;53.126;6.878;2023-04-03T14:44:56;3.25;;;1.40;;
52102;SDS011;38101;53.126;6.878;2023-04-03T14:47:26;3.45;;;1.35;;
52102;SDS011;38101;53.126;6.878;2023-04-03T14:49:54;2.67;;;1.30;;
52102;SDS011;38101;53.126;6.878;2023-04-03T14:52:21;3.05;;;1.40;;
52102;SDS011;38101;53.126;6.878;2023-04-03T14:54:47;4.32;;;1.80;;
52102;SDS011;38101;53.126;6.878;2023-04-03T14:57:14;4.68;;;1.80;;
52102;SDS011;38101;53.126;6.878;2023-04-03T14:59:41;4.20;;;1.80;;
52102;SDS011;38101;53.126;6.878;2023-04-03T15:04:54;4.32;;;1.90;;
52102;SDS011;38101;53.126;6.878;2023-04-03T15:07:21;3.78;;;1.80;;
52102;SDS011;38101;53.126;6.878;2023-04-03T15:09:48;2.85;;;1.50;;
52102;SDS011;38101;53.126;6.878;2023-04-03T15:12:15;3.47;;;1.73;;
52102;SDS011;38101;53.126;6.878;2023-04-03T15:14:41;3.10;;;1.60;;
52102;SDS011;38101;53.126;6.878;2023-04-03T15:17:08;2.95;;;1.70;;
52102;SDS011;38101;53.126;6.878;2023-04-03T15:19:39;2.67;;;1.73;;
52102;SDS011;38101;53.126;6.878;2023-04-03T15:22:05;4.70;;;1.60;;
52102;SDS011;38101;53.126;6.878;2023-04-03T15:24:31;3.08;;;1.63;;
52102;SDS011;38101;53.126;6.878;2023-04-03T15:26:57;3.97;;;1.60;;
52102;SDS011;38101;53.126;6.878;2023-04-03T15:29:24;3.10;;;1.42;;
52102;SDS011;38101;53.126;6.878;2023-04-03T15:31:50;4.10;;;1.60;;
52102;SDS011;38101;53.126;6.878;2023-04-03T15:34:18;2.17;;;1.48;;
52102;SDS011;38101;53.126;6.878;2023-04-03T15:36:46;2.78;;;1.67;;
52102;SDS011;38101;53.126;6.878;2023-04-03T15:39:12;2.90;;;1.48;;
52102;SDS011;38101;53.126;6.878;2023-04-03T15:41:38;2.40;;;1.23;;
52102;SDS011;38101;53.126;6.878;2023-04-03T15:44:03;2.47;;;1.35;;
52102;SDS011;38101;53.126;6.878;2023-04-03T15:46:29;3.30;;;1.30;;
52102;SDS011;38101;53.126;6.878;2023-04-03T15:48:55;1.98;;;1.60;;
52102;SDS011;38101;53.126;6.878;2023-04-03T15:51:20;2.45;;;1.40;;
52102;SDS011;38101;53.126;6.878;2023-04-03T15:53:46;3.90;;;1.73;;
52102;SDS011;38101;53.126;6.878;2023-04-03T15:56:12;2.58;;;1.40;;
52102;SDS011;38101;53.126;6.878;2023-04-03T15:58:37;3.28;;;1.30;;
52102;SDS011;38101;53.126;6.878;2023-04-03T16:01:03;2.40;;;1.27;;
52102;SDS011;38101;53.126;6.878;2023-04-03T16:03:29;3.90;;;1.60;;
52102;SDS011;38101;53.126;6.878;2023-04-03T16:05:55;2.70;;;1.60;;
52102;SDS011;38101;53.126;6.878;2023-04-03T16:08:21;3.30;;;1.40;;
52102;SDS011;38101;53.126;6.878;2023-04-03T16:10:47;2.63;;;1.50;;
52102;SDS011;38101;53.126;6.878;2023-04-03T16:13:13;2.20;;;1.25;;
52102;SDS011;38101;53.126;6.878;2023-04-03T16:15:40;2.50;;;1.33;;
52102;SDS011;38101;53.126;6.878;2023-04-03T16:18:06;3.58;;;1.52;;
52102;SDS011;38101;53.126;6.878;2023-04-03T16:20:33;2.33;;;1.48;;
52102;SDS011;38101;53.126;6.878;2023-04-03T16:23:00;2.78;;;1.40;;
52102;SDS011;38101;53.126;6.878;2023-04-03T16:25:26;3.17;;;1.85;;
52102;SDS011;38101;53.126;6.878;2023-04-03T16:27:52;3.53;;;1.60;;
52102;SDS011;38101;53.126;6.878;2023-04-03T16:30:18;2.17;;;1.42;;
52102;SDS011;38101;53.126;6.878;2023-04-03T16:32:43;3.72;;;1.75;;
52102;SDS011;38101;53.126;6.878;2023-04-03T16:35:10;3.05;;;1.63;;
52102;SDS011;38101;53.126;6.878;2023-04-03T16:37:36;2.67;;;1.30;;
52102;SDS011;38101;53.126;6.878;2023-04-03T16:40:04;4.32;;;1.50;;
52102;SDS011;38101;53.126;6.878;2023-04-03T16:42:31;4.07;;;1.50;;
52102;SDS011;38101;53.126;6.878;2023-04-03T16:44:57;1.85;;;1.30;;
52102;SDS011;38101;53.126;6.878;2023-04-03T16:47:25;2.45;;;1.45;;